sensor_id;sensor_type;location;lat;lon;timestamp;P1;durP1;ratioP1;P2;durP2;ratioP2
1294;SDS011;640;48.310;11.728;2022-08-19T00:01:26;8.45;;;7.40;;
1294;SDS011;640;48.310;11.728;2022-08-19T00:03:56;9.32;;;7.75;;
1294;SDS011;640;48.310;11.728;2022-08-19T00:06:26;9.45;;;7.90;;
1294;SDS011;640;48.310;11.728;2022-08-19T00:08:54;9.10;;;7.32;;
1294;SDS011;640;48.310;11.728;2022-08-19T00:11:24;9.13;;;8.23;;
1294;SDS011;640;48.310;11.728;2022-08-19T00:13:54;10.85;;;8.40;;
1294;SDS011;640;48.310;11.728;2022-08-19T00:16:23;10.40;;;8.38;;
1294;SDS011;640;48.310;11.728;2022-08-19T00:18:53;10.98;;;8.50;;
1294;SDS011;640;48.310;11.728;2022-08-19T00:21:22;11.27;;;8.18;;
1294;SDS011;640;48.310;11.728;2022-08-19T00:23:51;9.98;;;8.00;;
1294;SDS011;640;48.310;11.728;2022-08-19T00:26:19;10.38;;;7.90;;
1294;SDS011;640;48.310;11.728;2022-08-19T00:28:49;9.48;;;8.35;;
1294;SDS011;640;48.310;11.728;2022-08-19T00:31:17;9.27;;;7.88;;
1294;SDS011;640;48.310;11.728;2022-08-19T00:33:46;9.98;;;8.10;;
1294;SDS011;640;48.310;11.728;2022-08-19T00:36:16;10.20;;;8.70;;
1294;SDS011;640;48.310;11.728;2022-08-19T00:38:45;9.63;;;7.93;;
1294;SDS011;640;48.310;11.728;2022-08-19T00:41:14;11.15;;;8.50;;
1294;SDS011;640;48.310;11.728;2022-08-19T00:43:50;9.20;;;8.20;;
1294;SDS011;640;48.310;11.728;2022-08-19T00:46:26;10.70;;;8.15;;
1294;SDS011;640;48.310;11.728;2022-08-19T00:48:54;9.73;;;7.43;;
1294;SDS011;640;48.310;11.728;2022-08-19T00:51:24;9.50;;;7.78;;
1294;SDS011;640;48.310;11.728;2022-08-19T00:53:53;9.15;;;7.95;;
1294;SDS011;640;48.310;11.728;2022-08-19T00:56:22;10.10;;;7.85;;
1294;SDS011;640;48.310;11.728;2022-08-19T00:58:53;9.60;;;7.30;;
1294;SDS011;640;48.310;11.728;2022-08-19T01:01:24;8.88;;;7.95;;
1294;SDS011;640;48.310;11.728;2022-08-19T01:03:52;9.18;;;7.57;;
1294;SDS011;640;48.310;11.728;2022-08-19T01:06:24;9.52;;;8.27;;
1294;SDS011;640;48.310;11.728;2022-08-19T01:08:53;9.60;;;8.40;;
1294;SDS011;640;48.310;11.728;2022-08-19T01:11:22;9.38;;;8.20;;
1294;SDS011;640;48.310;11.728;2022-08-19T01:13:50;9.50;;;7.88;;
1294;SDS011;640;48.310;11.728;2022-08-19T01:16:20;11.17;;;8.73;;
1294;SDS011;640;48.310;11.728;2022-08-19T01:18:51;11.80;;;8.80;;
1294;SDS011;640;48.310;11.728;2022-08-19T01:21:21;9.98;;;8.45;;
1294;SDS011;640;48.310;11.728;2022-08-19T01:23:53;9.52;;;8.32;;
1294;SDS011;640;48.310;11.728;2022-08-19T01:26:22;11.32;;;8.63;;
1294;SDS011;640;48.310;11.728;2022-08-19T01:28:53;12.30;;;8.73;;
1294;SDS011;640;48.310;11.728;2022-08-19T01:31:27;11.98;;;8.98;;
1294;SDS011;640;48.310;11.728;2022-08-19T01:33:59;9.23;;;8.02;;
1294;SDS011;640;48.310;11.728;2022-08-19T01:36:30;11.07;;;8.57;;
1294;SDS011;640;48.310;11.728;2022-08-19T01:39:03;10.05;;;8.35;;
1294;SDS011;640;48.310;11.728;2022-08-19T01:41:34;10.15;;;8.82;;
1294;SDS011;640;48.310;11.728;2022-08-19T01:44:03;10.35;;;9.10;;
1294;SDS011;640;48.310;11.728;2022-08-19T01:46:45;10.30;;;9.15;;
1294;SDS011;640;48.310;11.728;2022-08-19T01:49:16;9.90;;;8.13;;
1294;SDS011;640;48.310;11.728;2022-08-19T01:51:46;9.98;;;8.43;;
1294;SDS011;640;48.310;11.728;2022-08-19T01:54:16;10.35;;;8.95;;
1294;SDS011;640;48.310;11.728;2022-08-19T01:56:55;11.15;;;8.82;;
1294;SDS011;640;48.310;11.728;2022-08-19T01:59:26;10.32;;;8.90;;
1294;SDS011;640;48.310;11.728;2022-08-19T02:01:55;11.07;;;8.95;;
1294;SDS011;640;48.310;11.728;2022-08-19T02:04:23;11.23;;;9.00;;
1294;SDS011;640;48.310;11.728;2022-08-19T02:06:52;9.70;;;8.68;;
1294;SDS011;640;48.310;11.728;2022-08-19T02:09:22;9.15;;;8.25;;
1294;SDS011;640;48.310;11.728;2022-08-19T02:11:50;10.30;;;8.98;;
1294;SDS011;640;48.310;11.728;2022-08-19T02:14:18;9.25;;;8.25;;
1294;SDS011;640;48.310;11.728;2022-08-19T02:16:47;9.63;;;8.50;;
1294;SDS011;640;48.310;11.728;2022-08-19T02:19:15;9.57;;;8.40;;
1294;SDS011;640;48.310;11.728;2022-08-19T02:21:43;10.25;;;8.93;;
1294;SDS011;640;48.310;11.728;2022-08-19T02:24:12;9.88;;;8.57;;
1294;SDS011;640;48.310;11.728;2022-08-19T02:26:41;10.43;;;9.32;;
1294;SDS011;640;48.310;11.728;2022-08-19T02:29:10;9.95;;;8.93;;
1294;SDS011;640;48.310;11.728;2022-08-19T02:31:38;10.57;;;9.50;;
1294;SDS011;640;48.310;11.728;2022-08-19T02:34:07;11.75;;;10.52;;
1294;SDS011;640;48.310;11.728;2022-08-19T02:36:35;13.02;;;11.15;;
1294;SDS011;640;48.310;11.728;2022-08-19T02:39:08;13.05;;;11.63;;
1294;SDS011;640;48.310;11.728;2022-08-19T02:41:36;13.77;;;11.27;;
1294;SDS011;640;48.310;11.728;2022-08-19T02:44:05;13.05;;;11.55;;
1294;SDS011;640;48.310;11.728;2022-08-19T02:46:54;14.65;;;11.73;;
1294;SDS011;640;48.310;11.728;2022-08-19T02:49:22;13.50;;;12.10;;
1294;SDS011;640;48.310;11.728;2022-08-19T02:51:50;14.40;;;12.15;;
1294;SDS011;640;48.310;11.728;2022-08-19T02:54:19;14.52;;;11.35;;
1294;SDS011;640;48.310;11.728;2022-08-19T02:56:48;12.93;;;11.27;;
1294;SDS011;640;48.310;11.728;2022-08-19T02:59:18;12.77;;;11.27;;
1294;SDS011;640;48.310;11.728;2022-08-19T03:01:48;12.05;;;10.75;;
1294;SDS011;640;48.310;11.728;2022-08-19T03:04:17;13.77;;;10.77;;
1294;SDS011;640;48.310;11.728;2022-08-19T03:06:46;14.00;;;11.43;;
1294;SDS011;640;48.310;11.728;2022-08-19T03:09:15;12.93;;;11.20;;
1294;SDS011;640;48.310;11.728;2022-08-19T03:11:44;14.07;;;11.27;;
1294;SDS011;640;48.310;11.728;2022-08-19T03:14:15;12.82;;;11.38;;
1294;SDS011;640;48.310;11.728;2022-08-19T03:16:46;13.85;;;11.43;;
1294;SDS011;640;48.310;11.728;2022-08-19T03:19:16;14.40;;;11.80;;
1294;SDS011;640;48.310;11.728;2022-08-19T03:21:45;14.30;;;12.68;;
1294;SDS011;640;48.310;11.728;2022-08-19T03:24:14;12.80;;;11.27;;
1294;SDS011;640;48.310;11.728;2022-08-19T03:26:44;13.02;;;11.27;;
1294;SDS011;640;48.310;11.728;2022-08-19T03:29:15;15.63;;;12.23;;
1294;SDS011;640;48.310;11.728;2022-08-19T03:31:58;14.35;;;12.70;;
1294;SDS011;640;48.310;11.728;2022-08-19T03:34:31;16.92;;;12.38;;
1294;SDS011;640;48.310;11.728;2022-08-19T03:37:03;14.98;;;12.07;;
1294;SDS011;640;48.310;11.728;2022-08-19T03:39:32;13.95;;;12.32;;
1294;SDS011;640;48.310;11.728;2022-08-19T03:42:02;13.88;;;12.38;;
1294;SDS011;640;48.310;11.728;2022-08-19T03:44:50;15.70;;;13.50;;
1294;SDS011;640;48.310;11.728;2022-08-19T03:47:20;14.80;;;12.63;;
1294;SDS011;640;48.310;11.728;2022-08-19T03:49:49;15.57;;;13.40;;
1294;SDS011;640;48.310;11.728;2022-08-19T03:52:17;15.40;;;12.98;;
1294;SDS011;640;48.310;11.728;2022-08-19T03:54:46;15.18;;;13.25;;
1294;SDS011;640;48.310;11.728;2022-08-19T03:57:14;16.17;;;13.60;;
1294;SDS011;640;48.310;11.728;2022-08-19T03:59:42;15.55;;;13.65;;
1294;SDS011;640;48.310;11.728;2022-08-19T04:02:11;16.17;;;14.18;;
1294;SDS011;640;48.310;11.728;2022-08-19T04:04:42;16.40;;;13.60;;
1294;SDS011;640;48.310;11.728;2022-08-19T04:07:11;16.48;;;12.68;;
1294;SDS011;640;48.310;11.728;2022-08-19T04:09:43;21.27;;;13.82;;
1294;SDS011;640;48.310;11.728;2022-08-19T04:12:11;14.93;;;13.07;;
1294;SDS011;640;48.310;11.728;2022-08-19T04:14:40;14.50;;;12.88;;
1294;SDS011;640;48.310;11.728;2022-08-19T04:17:08;18.05;;;13.95;;
1294;SDS011;640;48.310;11.728;2022-08-19T04:19:36;16.58;;;14.07;;
1294;SDS011;640;48.310;11.728;2022-08-19T04:22:06;17.73;;;14.32;;
1294;SDS011;640;48.310;11.728;2022-08-19T04:24:35;17.23;;;14.55;;
1294;SDS011;640;48.310;11.728;2022-08-19T04:27:03;17.77;;;14.73;;
1294;SDS011;640;48.310;11.728;2022-08-19T04:29:33;17.45;;;14.10;;
1294;SDS011;640;48.310;11.728;2022-08-19T04:32:01;18.17;;;14.35;;
1294;SDS011;640;48.310;11.728;2022-08-19T04:34:36;16.83;;;13.82;;
1294;SDS011;640;48.310;11.728;2022-08-19T04:37:26;16.05;;;14.32;;
1294;SDS011;640;48.310;11.728;2022-08-19T04:40:03;17.42;;;14.40;;
1294;SDS011;640;48.310;11.728;2022-08-19T04:42:50;18.63;;;15.25;;
1294;SDS011;640;48.310;11.728;2022-08-19T04:45:18;16.52;;;14.10;;
1294;SDS011;640;48.310;11.728;2022-08-19T04:47:49;17.63;;;15.05;;
1294;SDS011;640;48.310;11.728;2022-08-19T04:50:39;17.83;;;14.23;;
1294;SDS011;640;48.310;11.728;2022-08-19T04:53:10;15.95;;;13.98;;
1294;SDS011;640;48.310;11.728;2022-08-19T04:55:39;17.50;;;13.75;;
1294;SDS011;640;48.310;11.728;2022-08-19T04:58:08;17.20;;;14.23;;
1294;SDS011;640;48.310;11.728;2022-08-19T05:00:37;15.68;;;14.07;;
1294;SDS011;640;48.310;11.728;2022-08-19T05:03:06;16.10;;;13.63;;
1294;SDS011;640;48.310;11.728;2022-08-19T05:05:37;16.85;;;14.45;;
1294;SDS011;640;48.310;11.728;2022-08-19T05:08:13;18.27;;;14.68;;
1294;SDS011;640;48.310;11.728;2022-08-19T05:10:57;15.75;;;13.70;;
1294;SDS011;640;48.310;11.728;2022-08-19T05:13:26;15.80;;;13.93;;
1294;SDS011;640;48.310;11.728;2022-08-19T05:15:54;16.75;;;13.45;;
1294;SDS011;640;48.310;11.728;2022-08-19T05:18:23;16.75;;;13.43;;
1294;SDS011;640;48.310;11.728;2022-08-19T05:21:11;15.90;;;12.90;;
1294;SDS011;640;48.310;11.728;2022-08-19T05:24:02;15.25;;;12.30;;
1294;SDS011;640;48.310;11.728;2022-08-19T05:26:35;14.52;;;12.70;;
1294;SDS011;640;48.310;11.728;2022-08-19T05:29:04;15.38;;;13.15;;
1294;SDS011;640;48.310;11.728;2022-08-19T05:31:36;16.05;;;13.43;;
1294;SDS011;640;48.310;11.728;2022-08-19T05:34:08;14.93;;;12.20;;
1294;SDS011;640;48.310;11.728;2022-08-19T05:36:46;14.93;;;13.23;;
1294;SDS011;640;48.310;11.728;2022-08-19T05:39:17;15.40;;;12.90;;
1294;SDS011;640;48.310;11.728;2022-08-19T05:41:48;15.13;;;12.93;;
1294;SDS011;640;48.310;11.728;2022-08-19T05:44:17;14.75;;;13.15;;
1294;SDS011;640;48.310;11.728;2022-08-19T05:46:46;15.15;;;13.55;;
1294;SDS011;640;48.310;11.728;2022-08-19T05:49:15;15.30;;;13.27;;
1294;SDS011;640;48.310;11.728;2022-08-19T05:51:44;16.85;;;13.48;;
1294;SDS011;640;48.310;11.728;2022-08-19T05:54:12;15.10;;;12.75;;
1294;SDS011;640;48.310;11.728;2022-08-19T05:56:42;16.08;;;13.50;;
1294;SDS011;640;48.310;11.728;2022-08-19T05:59:11;15.93;;;13.02;;
1294;SDS011;640;48.310;11.728;2022-08-19T06:01:40;15.07;;;13.48;;
1294;SDS011;640;48.310;11.728;2022-08-19T06:04:09;17.45;;;13.98;;
1294;SDS011;640;48.310;11.728;2022-08-19T06:09:08;16.95;;;13.65;;
1294;SDS011;640;48.310;11.728;2022-08-19T06:11:37;17.20;;;14.07;;
1294;SDS011;640;48.310;11.728;2022-08-19T06:14:10;18.00;;;13.93;;
1294;SDS011;640;48.310;11.728;2022-08-19T06:16:42;15.95;;;13.07;;
1294;SDS011;640;48.310;11.728;2022-08-19T06:19:11;15.27;;;13.30;;
1294;SDS011;640;48.310;11.728;2022-08-19T06:21:42;14.68;;;12.48;;
1294;SDS011;640;48.310;11.728;2022-08-19T06:26:41;15.07;;;13.38;;
1294;SDS011;640;48.310;11.728;2022-08-19T06:29:12;16.70;;;13.68;;
1294;SDS011;640;48.310;11.728;2022-08-19T06:31:51;19.58;;;13.68;;
1294;SDS011;640;48.310;11.728;2022-08-19T06:34:20;17.90;;;14.63;;
1294;SDS011;640;48.310;11.728;2022-08-19T06:36:49;18.48;;;15.07;;
1294;SDS011;640;48.310;11.728;2022-08-19T06:39:19;18.23;;;14.68;;
1294;SDS011;640;48.310;11.728;2022-08-19T06:41:50;18.95;;;15.05;;
1294;SDS011;640;48.310;11.728;2022-08-19T06:44:26;18.83;;;15.32;;
1294;SDS011;640;48.310;11.728;2022-08-19T06:46:57;17.10;;;14.85;;
1294;SDS011;640;48.310;11.728;2022-08-19T06:49:26;19.30;;;15.77;;
1294;SDS011;640;48.310;11.728;2022-08-19T06:51:58;21.33;;;15.48;;
1294;SDS011;640;48.310;11.728;2022-08-19T06:54:27;21.93;;;16.77;;
1294;SDS011;640;48.310;11.728;2022-08-19T06:56:56;20.70;;;16.15;;
1294;SDS011;640;48.310;11.728;2022-08-19T06:59:30;20.13;;;16.60;;
1294;SDS011;640;48.310;11.728;2022-08-19T07:02:01;24.33;;;17.17;;
1294;SDS011;640;48.310;11.728;2022-08-19T07:04:32;20.73;;;16.73;;
1294;SDS011;640;48.310;11.728;2022-08-19T07:07:03;23.80;;;16.95;;
1294;SDS011;640;48.310;11.728;2022-08-19T07:09:46;20.42;;;16.05;;
1294;SDS011;640;48.310;11.728;2022-08-19T07:12:26;21.27;;;17.95;;
1294;SDS011;640;48.310;11.728;2022-08-19T07:14:58;26.60;;;19.63;;
1294;SDS011;640;48.310;11.728;2022-08-19T07:17:27;23.48;;;19.35;;
1294;SDS011;640;48.310;11.728;2022-08-19T07:19:56;27.77;;;19.38;;
1294;SDS011;640;48.310;11.728;2022-08-19T07:22:32;25.83;;;19.63;;
1294;SDS011;640;48.310;11.728;2022-08-19T07:25:01;25.60;;;20.17;;
1294;SDS011;640;48.310;11.728;2022-08-19T07:27:31;25.85;;;20.55;;
1294;SDS011;640;48.310;11.728;2022-08-19T07:30:02;24.47;;;19.37;;
1294;SDS011;640;48.310;11.728;2022-08-19T07:32:31;25.88;;;19.35;;
1294;SDS011;640;48.310;11.728;2022-08-19T07:34:59;27.63;;;21.13;;
1294;SDS011;640;48.310;11.728;2022-08-19T07:37:30;27.48;;;19.38;;
1294;SDS011;640;48.310;11.728;2022-08-19T07:39:59;27.20;;;18.93;;
1294;SDS011;640;48.310;11.728;2022-08-19T07:42:28;23.40;;;18.83;;
1294;SDS011;640;48.310;11.728;2022-08-19T07:44:57;25.48;;;20.35;;
1294;SDS011;640;48.310;11.728;2022-08-19T07:47:27;25.00;;;19.75;;
1294;SDS011;640;48.310;11.728;2022-08-19T07:50:16;26.13;;;20.63;;
1294;SDS011;640;48.310;11.728;2022-08-19T07:52:46;29.95;;;21.75;;
1294;SDS011;640;48.310;11.728;2022-08-19T07:55:17;24.90;;;20.10;;
1294;SDS011;640;48.310;11.728;2022-08-19T07:58:07;28.10;;;21.85;;
1294;SDS011;640;48.310;11.728;2022-08-19T08:00:35;32.03;;;22.98;;
1294;SDS011;640;48.310;11.728;2022-08-19T08:03:05;26.77;;;22.05;;
1294;SDS011;640;48.310;11.728;2022-08-19T08:05:35;30.00;;;23.40;;
1294;SDS011;640;48.310;11.728;2022-08-19T08:08:21;31.60;;;23.50;;
1294;SDS011;640;48.310;11.728;2022-08-19T08:11:14;28.05;;;23.13;;
1294;SDS011;640;48.310;11.728;2022-08-19T08:13:46;27.45;;;21.70;;
1294;SDS011;640;48.310;11.728;2022-08-19T08:16:30;27.98;;;22.77;;
1294;SDS011;640;48.310;11.728;2022-08-19T08:19:06;26.77;;;21.80;;
1294;SDS011;640;48.310;11.728;2022-08-19T08:21:51;27.15;;;21.58;;
1294;SDS011;640;48.310;11.728;2022-08-19T08:24:20;29.40;;;22.30;;
1294;SDS011;640;48.310;11.728;2022-08-19T08:26:54;27.55;;;21.45;;
1294;SDS011;640;48.310;11.728;2022-08-19T08:29:25;27.33;;;21.75;;
1294;SDS011;640;48.310;11.728;2022-08-19T08:32:01;27.50;;;22.38;;
1294;SDS011;640;48.310;11.728;2022-08-19T08:34:42;26.42;;;21.17;;
1294;SDS011;640;48.310;11.728;2022-08-19T08:37:15;24.70;;;20.50;;
1294;SDS011;640;48.310;11.728;2022-08-19T08:39:44;27.98;;;21.83;;
1294;SDS011;640;48.310;11.728;2022-08-19T08:42:15;25.40;;;20.73;;
1294;SDS011;640;48.310;11.728;2022-08-19T08:44:47;24.85;;;20.58;;
1294;SDS011;640;48.310;11.728;2022-08-19T08:47:24;24.77;;;20.23;;
1294;SDS011;640;48.310;11.728;2022-08-19T08:49:56;27.13;;;21.00;;
1294;SDS011;640;48.310;11.728;2022-08-19T08:52:28;26.40;;;21.25;;
1294;SDS011;640;48.310;11.728;2022-08-19T08:55:00;24.98;;;21.27;;
1294;SDS011;640;48.310;11.728;2022-08-19T08:57:37;26.85;;;21.70;;
1294;SDS011;640;48.310;11.728;2022-08-19T09:00:10;25.67;;;21.45;;
1294;SDS011;640;48.310;11.728;2022-08-19T09:02:44;25.15;;;20.25;;
1294;SDS011;640;48.310;11.728;2022-08-19T09:05:18;26.17;;;20.05;;
1294;SDS011;640;48.310;11.728;2022-08-19T09:07:53;25.98;;;20.08;;
1294;SDS011;640;48.310;11.728;2022-08-19T09:10:29;26.85;;;20.73;;
1294;SDS011;640;48.310;11.728;2022-08-19T09:13:18;28.48;;;20.95;;
1294;SDS011;640;48.310;11.728;2022-08-19T09:15:52;27.23;;;19.83;;
1294;SDS011;640;48.310;11.728;2022-08-19T09:18:22;22.45;;;18.73;;
1294;SDS011;640;48.310;11.728;2022-08-19T09:20:56;22.25;;;18.42;;
1294;SDS011;640;48.310;11.728;2022-08-19T09:23:25;20.98;;;17.98;;
1294;SDS011;640;48.310;11.728;2022-08-19T09:25:53;19.50;;;16.17;;
1294;SDS011;640;48.310;11.728;2022-08-19T09:28:24;20.45;;;16.95;;
1294;SDS011;640;48.310;11.728;2022-08-19T09:30:53;19.35;;;16.50;;
1294;SDS011;640;48.310;11.728;2022-08-19T09:33:21;21.98;;;17.67;;
1294;SDS011;640;48.310;11.728;2022-08-19T09:35:50;19.38;;;16.50;;
1294;SDS011;640;48.310;11.728;2022-08-19T09:38:21;20.35;;;17.17;;
1294;SDS011;640;48.310;11.728;2022-08-19T09:40:49;21.05;;;16.10;;
1294;SDS011;640;48.310;11.728;2022-08-19T09:43:18;21.95;;;17.20;;
1294;SDS011;640;48.310;11.728;2022-08-19T09:46:06;22.48;;;19.23;;
1294;SDS011;640;48.310;11.728;2022-08-19T09:48:36;23.40;;;19.83;;
1294;SDS011;640;48.310;11.728;2022-08-19T09:51:05;24.23;;;19.95;;
1294;SDS011;640;48.310;11.728;2022-08-19T09:53:39;24.92;;;21.58;;
1294;SDS011;640;48.310;11.728;2022-08-19T09:56:07;25.85;;;22.05;;
1294;SDS011;640;48.310;11.728;2022-08-19T09:58:36;29.90;;;23.30;;
1294;SDS011;640;48.310;11.728;2022-08-19T10:01:05;30.90;;;23.15;;
1294;SDS011;640;48.310;11.728;2022-08-19T10:03:36;30.48;;;24.27;;
1294;SDS011;640;48.310;11.728;2022-08-19T10:06:05;34.20;;;23.83;;
1294;SDS011;640;48.310;11.728;2022-08-19T10:08:44;32.25;;;26.45;;
1294;SDS011;640;48.310;11.728;2022-08-19T10:11:16;33.95;;;26.67;;
1294;SDS011;640;48.310;11.728;2022-08-19T10:14:05;34.88;;;27.48;;
1294;SDS011;640;48.310;11.728;2022-08-19T10:16:35;34.10;;;27.02;;
1294;SDS011;640;48.310;11.728;2022-08-19T10:19:05;35.60;;;26.40;;
1294;SDS011;640;48.310;11.728;2022-08-19T10:21:34;32.25;;;26.17;;
1294;SDS011;640;48.310;11.728;2022-08-19T10:24:07;35.25;;;27.80;;
1294;SDS011;640;48.310;11.728;2022-08-19T10:26:37;32.42;;;27.00;;
1294;SDS011;640;48.310;11.728;2022-08-19T10:29:08;35.88;;;27.40;;
1294;SDS011;640;48.310;11.728;2022-08-19T10:31:58;32.70;;;26.17;;
1294;SDS011;640;48.310;11.728;2022-08-19T10:34:29;34.67;;;27.98;;
1294;SDS011;640;48.310;11.728;2022-08-19T10:36:58;33.53;;;27.02;;
1294;SDS011;640;48.310;11.728;2022-08-19T10:39:29;31.67;;;26.58;;
1294;SDS011;640;48.310;11.728;2022-08-19T10:42:09;31.98;;;26.38;;
1294;SDS011;640;48.310;11.728;2022-08-19T10:44:40;34.67;;;27.55;;
1294;SDS011;640;48.310;11.728;2022-08-19T10:47:09;33.38;;;27.02;;
1294;SDS011;640;48.310;11.728;2022-08-19T10:49:52;28.42;;;23.73;;
1294;SDS011;640;48.310;11.728;2022-08-19T10:52:39;28.23;;;23.13;;
1294;SDS011;640;48.310;11.728;2022-08-19T10:55:18;30.23;;;24.98;;
1294;SDS011;640;48.310;11.728;2022-08-19T11:00:38;28.75;;;23.40;;
1294;SDS011;640;48.310;11.728;2022-08-19T11:03:07;29.33;;;24.67;;
1294;SDS011;640;48.310;11.728;2022-08-19T11:05:35;26.90;;;22.92;;
1294;SDS011;640;48.310;11.728;2022-08-19T11:08:06;26.52;;;23.52;;
1294;SDS011;640;48.310;11.728;2022-08-19T11:10:51;26.70;;;23.58;;
1294;SDS011;640;48.310;11.728;2022-08-19T11:13:26;29.33;;;24.45;;
1294;SDS011;640;48.310;11.728;2022-08-19T11:15:58;27.92;;;24.05;;
1294;SDS011;640;48.310;11.728;2022-08-19T11:18:33;28.77;;;23.85;;
1294;SDS011;640;48.310;11.728;2022-08-19T11:21:07;27.95;;;24.20;;
1294;SDS011;640;48.310;11.728;2022-08-19T11:23:37;28.42;;;24.50;;
1294;SDS011;640;48.310;11.728;2022-08-19T11:26:06;28.55;;;23.58;;
1294;SDS011;640;48.310;11.728;2022-08-19T11:28:35;29.80;;;25.40;;
1294;SDS011;640;48.310;11.728;2022-08-19T11:31:08;25.77;;;21.25;;
1294;SDS011;640;48.310;11.728;2022-08-19T11:33:38;23.45;;;19.38;;
1294;SDS011;640;48.310;11.728;2022-08-19T11:36:07;23.63;;;20.50;;
1294;SDS011;640;48.310;11.728;2022-08-19T11:38:40;22.33;;;19.73;;
1294;SDS011;640;48.310;11.728;2022-08-19T11:41:10;18.73;;;15.93;;
1294;SDS011;640;48.310;11.728;2022-08-19T11:43:39;11.93;;;9.70;;
1294;SDS011;640;48.310;11.728;2022-08-19T11:46:08;9.40;;;8.50;;
1294;SDS011;640;48.310;11.728;2022-08-19T11:48:38;9.48;;;8.38;;
1294;SDS011;640;48.310;11.728;2022-08-19T11:51:08;9.88;;;8.88;;
1294;SDS011;640;48.310;11.728;2022-08-19T11:53:39;11.23;;;9.13;;
1294;SDS011;640;48.310;11.728;2022-08-19T11:56:08;10.93;;;8.02;;
1294;SDS011;640;48.310;11.728;2022-08-19T11:58:38;9.93;;;7.97;;
1294;SDS011;640;48.310;11.728;2022-08-19T12:01:09;6.50;;;5.70;;
1294;SDS011;640;48.310;11.728;2022-08-19T12:03:38;10.40;;;8.27;;
1294;SDS011;640;48.310;11.728;2022-08-19T12:06:08;9.90;;;8.90;;
1294;SDS011;640;48.310;11.728;2022-08-19T12:08:39;10.35;;;8.23;;
1294;SDS011;640;48.310;11.728;2022-08-19T12:11:08;8.98;;;7.88;;
1294;SDS011;640;48.310;11.728;2022-08-19T12:13:38;8.30;;;7.40;;
1294;SDS011;640;48.310;11.728;2022-08-19T12:16:07;8.30;;;7.38;;
1294;SDS011;640;48.310;11.728;2022-08-19T12:18:37;7.63;;;6.30;;
1294;SDS011;640;48.310;11.728;2022-08-19T12:21:08;5.50;;;4.80;;
1294;SDS011;640;48.310;11.728;2022-08-19T12:23:37;4.68;;;4.18;;
1294;SDS011;640;48.310;11.728;2022-08-19T12:26:06;3.95;;;3.53;;
1294;SDS011;640;48.310;11.728;2022-08-19T12:28:34;2.65;;;2.30;;
1294;SDS011;640;48.310;11.728;2022-08-19T12:31:05;2.40;;;2.20;;
1294;SDS011;640;48.310;11.728;2022-08-19T12:33:33;2.35;;;2.00;;
1294;SDS011;640;48.310;11.728;2022-08-19T12:36:02;1.35;;;1.25;;
1294;SDS011;640;48.310;11.728;2022-08-19T12:38:32;1.88;;;1.65;;
1294;SDS011;640;48.310;11.728;2022-08-19T12:41:02;1.55;;;1.45;;
1294;SDS011;640;48.310;11.728;2022-08-19T12:43:33;1.92;;;1.10;;
1294;SDS011;640;48.310;11.728;2022-08-19T12:46:02;1.27;;;1.10;;
1294;SDS011;640;48.310;11.728;2022-08-19T12:48:36;2.25;;;1.38;;
1294;SDS011;640;48.310;11.728;2022-08-19T12:51:07;1.77;;;1.33;;
1294;SDS011;640;48.310;11.728;2022-08-19T12:53:40;1.67;;;1.45;;
1294;SDS011;640;48.310;11.728;2022-08-19T12:56:09;1.40;;;1.30;;
1294;SDS011;640;48.310;11.728;2022-08-19T13:01:18;6.32;;;1.50;;
1294;SDS011;640;48.310;11.728;2022-08-19T13:03:48;2.13;;;1.40;;
1294;SDS011;640;48.310;11.728;2022-08-19T13:06:19;1.10;;;1.00;;
1294;SDS011;640;48.310;11.728;2022-08-19T13:08:48;1.42;;;1.30;;
1294;SDS011;640;48.310;11.728;2022-08-19T13:11:17;1.20;;;1.10;;
1294;SDS011;640;48.310;11.728;2022-08-19T13:13:47;1.40;;;1.20;;
1294;SDS011;640;48.310;11.728;2022-08-19T13:16:19;2.60;;;1.38;;
1294;SDS011;640;48.310;11.728;2022-08-19T13:18:49;1.60;;;1.50;;
1294;SDS011;640;48.310;11.728;2022-08-19T13:23:49;1.98;;;1.60;;
1294;SDS011;640;48.310;11.728;2022-08-19T13:26:18;2.30;;;1.80;;
1294;SDS011;640;48.310;11.728;2022-08-19T13:28:46;2.20;;;2.00;;
1294;SDS011;640;48.310;11.728;2022-08-19T13:31:35;2.95;;;2.38;;
1294;SDS011;640;48.310;11.728;2022-08-19T13:34:26;3.10;;;2.38;;
1294;SDS011;640;48.310;11.728;2022-08-19T13:36:57;2.80;;;2.45;;
1294;SDS011;640;48.310;11.728;2022-08-19T13:39:25;3.17;;;2.70;;
1294;SDS011;640;48.310;11.728;2022-08-19T13:41:54;2.92;;;2.63;;
1294;SDS011;640;48.310;11.728;2022-08-19T13:44:23;3.17;;;2.88;;
1294;SDS011;640;48.310;11.728;2022-08-19T13:46:53;3.10;;;2.80;;
1294;SDS011;640;48.310;11.728;2022-08-19T13:49:21;3.65;;;2.80;;
1294;SDS011;640;48.310;11.728;2022-08-19T13:51:49;3.50;;;3.20;;
1294;SDS011;640;48.310;11.728;2022-08-19T13:54:18;4.88;;;3.08;;
1294;SDS011;640;48.310;11.728;2022-08-19T13:56:46;3.78;;;3.20;;
1294;SDS011;640;48.310;11.728;2022-08-19T13:59:14;3.00;;;2.70;;
1294;SDS011;640;48.310;11.728;2022-08-19T14:01:43;2.95;;;2.47;;
1294;SDS011;640;48.310;11.728;2022-08-19T14:04:13;1.83;;;1.70;;
1294;SDS011;640;48.310;11.728;2022-08-19T14:06:41;1.48;;;1.38;;
1294;SDS011;640;48.310;11.728;2022-08-19T14:09:10;2.33;;;2.13;;
1294;SDS011;640;48.310;11.728;2022-08-19T14:11:38;3.90;;;2.50;;
1294;SDS011;640;48.310;11.728;2022-08-19T14:14:06;3.13;;;2.38;;
1294;SDS011;640;48.310;11.728;2022-08-19T14:16:41;3.50;;;2.30;;
1294;SDS011;640;48.310;11.728;2022-08-19T14:19:10;2.83;;;2.20;;
1294;SDS011;640;48.310;11.728;2022-08-19T14:21:39;2.53;;;2.33;;
1294;SDS011;640;48.310;11.728;2022-08-19T14:24:08;3.17;;;2.88;;
1294;SDS011;640;48.310;11.728;2022-08-19T14:26:37;2.90;;;2.53;;
1294;SDS011;640;48.310;11.728;2022-08-19T14:29:05;3.00;;;2.70;;
1294;SDS011;640;48.310;11.728;2022-08-19T14:31:33;3.75;;;3.17;;
1294;SDS011;640;48.310;11.728;2022-08-19T14:34:02;3.40;;;3.00;;
1294;SDS011;640;48.310;11.728;2022-08-19T14:36:30;3.45;;;3.15;;
1294;SDS011;640;48.310;11.728;2022-08-19T14:39:06;3.78;;;3.22;;
1294;SDS011;640;48.310;11.728;2022-08-19T14:44:03;3.28;;;2.80;;
1294;SDS011;640;48.310;11.728;2022-08-19T14:46:31;3.22;;;2.72;;
1294;SDS011;640;48.310;11.728;2022-08-19T14:49:00;3.15;;;2.85;;
1294;SDS011;640;48.310;11.728;2022-08-19T14:51:35;3.35;;;2.80;;
1294;SDS011;640;48.310;11.728;2022-08-19T14:54:04;2.92;;;2.67;;
1294;SDS011;640;48.310;11.728;2022-08-19T14:56:34;3.53;;;2.80;;
1294;SDS011;640;48.310;11.728;2022-08-19T14:59:02;3.55;;;2.78;;
1294;SDS011;640;48.310;11.728;2022-08-19T15:01:31;4.40;;;3.20;;
1294;SDS011;640;48.310;11.728;2022-08-19T15:03:59;4.05;;;3.65;;
1294;SDS011;640;48.310;11.728;2022-08-19T15:06:28;5.55;;;3.88;;
1294;SDS011;640;48.310;11.728;2022-08-19T15:08:57;5.10;;;4.30;;
1294;SDS011;640;48.310;11.728;2022-08-19T15:11:31;6.50;;;4.88;;
1294;SDS011;640;48.310;11.728;2022-08-19T15:14:00;6.63;;;5.90;;
1294;SDS011;640;48.310;11.728;2022-08-19T15:16:29;7.18;;;6.03;;
1294;SDS011;640;48.310;11.728;2022-08-19T15:18:58;8.48;;;7.38;;
1294;SDS011;640;48.310;11.728;2022-08-19T15:21:28;9.32;;;8.32;;
1294;SDS011;640;48.310;11.728;2022-08-19T15:23:57;8.88;;;7.50;;
1294;SDS011;640;48.310;11.728;2022-08-19T15:26:27;8.57;;;7.40;;
1294;SDS011;640;48.310;11.728;2022-08-19T15:29:00;10.05;;;8.18;;
1294;SDS011;640;48.310;11.728;2022-08-19T15:31:29;11.35;;;8.38;;
1294;SDS011;640;48.310;11.728;2022-08-19T15:34:03;10.15;;;8.18;;
1294;SDS011;640;48.310;11.728;2022-08-19T15:36:33;10.30;;;8.38;;
1294;SDS011;640;48.310;11.728;2022-08-19T15:39:02;11.50;;;9.43;;